sensor_id;sensor_type;location;lat;lon;timestamp;temperature;humidity
27559;DHT22;15002;52.028;5.670;2023-11-19T00:02:23;15.40;99.90
27559;DHT22;15002;52.028;5.670;2023-11-19T00:04:49;15.30;99.90
27559;DHT22;15002;52.028;5.670;2023-11-19T00:07:15;15.30;99.90
27559;DHT22;15002;52.028;5.670;2023-11-19T00:09:41;15.20;99.90
27559;DHT22;15002;52.028;5.670;2023-11-19T00:12:07;15.20;99.90
27559;DHT22;15002;52.028;5.670;2023-11-19T00:14:33;15.20;99.90
27559;DHT22;15002;52.028;5.670;2023-11-19T00:17:00;15.10;99.90
27559;DHT22;15002;52.028;5.670;2023-11-19T00:19:25;15.10;99.90
27559;DHT22;15002;52.028;5.670;2023-11-19T00:21:52;15.30;99.90
27559;DHT22;15002;52.028;5.670;2023-11-19T00:24:17;15.40;99.90
27559;DHT22;15002;52.028;5.670;2023-11-19T00:26:43;15.50;99.90
27559;DHT22;15002;52.028;5.670;2023-11-19T00:29:09;15.60;99.90
27559;DHT22;15002;52.028;5.670;2023-11-19T00:31:35;15.50;99.90
27559;DHT22;15002;52.028;5.670;2023-11-19T00:34:01;15.30;99.90
27559;DHT22;15002;52.028;5.670;2023-11-19T00:36:28;15.40;99.90
27559;DHT22;15002;52.028;5.670;2023-11-19T00:38:54;15.30;99.90
27559;DHT22;15002;52.028;5.670;2023-11-19T00:41:20;15.40;99.90
27559;DHT22;15002;52.028;5.670;2023-11-19T00:43:45;15.40;99.90
27559;DHT22;15002;52.028;5.670;2023-11-19T00:46:11;15.40;99.90
27559;DHT22;15002;52.028;5.670;2023-11-19T00:48:37;15.60;99.90
27559;DHT22;15002;52.028;5.670;2023-11-19T00:51:03;15.70;99.90
27559;DHT22;15002;52.028;5.670;2023-11-19T00:53:32;15.40;99.90
27559;DHT22;15002;52.028;5.670;2023-11-19T00:55:59;15.50;99.90
27559;DHT22;15002;52.028;5.670;2023-11-19T00:58:25;15.60;99.90
27559;DHT22;15002;52.028;5.670;2023-11-19T01:00:50;15.40;99.90
27559;DHT22;15002;52.028;5.670;2023-11-19T01:03:16;15.40;99.90
27559;DHT22;15002;52.028;5.670;2023-11-19T01:05:42;15.50;99.90
27559;DHT22;15002;52.028;5.670;2023-11-19T01:08:07;15.50;99.90
27559;DHT22;15002;52.028;5.670;2023-11-19T01:10:33;15.40;99.90
27559;DHT22;15002;52.028;5.670;2023-11-19T01:12:59;15.50;99.90
27559;DHT22;15002;52.028;5.670;2023-11-19T01:15:25;15.40;99.90
27559;DHT22;15002;52.028;5.670;2023-11-19T01:17:51;15.40;99.90
27559;DHT22;15002;52.028;5.670;2023-11-19T01:20:17;15.40;99.90
27559;DHT22;15002;52.028;5.670;2023-11-19T01:22:43;15.30;99.90
27559;DHT22;15002;52.028;5.670;2023-11-19T01:25:09;15.40;99.90
27559;DHT22;15002;52.028;5.670;2023-11-19T01:27:35;15.50;99.90
27559;DHT22;15002;52.028;5.670;2023-11-19T01:30:04;15.70;99.90
27559;DHT22;15002;52.028;5.670;2023-11-19T01:32:31;15.90;99.90
27559;DHT22;15002;52.028;5.670;2023-11-19T01:34:57;15.70;99.90
27559;DHT22;15002;52.028;5.670;2023-11-19T01:37:23;15.50;99.90
27559;DHT22;15002;52.028;5.670;2023-11-19T01:39:48;15.40;99.90
27559;DHT22;15002;52.028;5.670;2023-11-19T01:42:14;15.10;99.90
27559;DHT22;15002;52.028;5.670;2023-11-19T01:44:41;15.30;99.90
27559;DHT22;15002;52.028;5.670;2023-11-19T01:47:07;15.40;99.90
27559;DHT22;15002;52.028;5.670;2023-11-19T01:49:34;15.30;99.90
27559;DHT22;15002;52.028;5.670;2023-11-19T01:52:00;15.40;99.90
27559;DHT22;15002;52.028;5.670;2023-11-19T01:54:26;15.50;99.90
27559;DHT22;15002;52.028;5.670;2023-11-19T01:56:53;15.50;99.90
27559;DHT22;15002;52.028;5.670;2023-11-19T01:59:22;15.50;99.90
27559;DHT22;15002;52.028;5.670;2023-11-19T02:01:53;15.50;99.90
27559;DHT22;15002;52.028;5.670;2023-11-19T02:04:19;15.30;99.90
27559;DHT22;15002;52.028;5.670;2023-11-19T02:06:48;15.30;99.90
27559;DHT22;15002;52.028;5.670;2023-11-19T02:09:16;15.10;99.90
27559;DHT22;15002;52.028;5.670;2023-11-19T02:11:45;15.50;99.90
27559;DHT22;15002;52.028;5.670;2023-11-19T02:14:15;15.40;99.90
27559;DHT22;15002;52.028;5.670;2023-11-19T02:16:40;15.50;99.90
27559;DHT22;15002;52.028;5.670;2023-11-19T02:19:06;15.50;99.90
27559;DHT22;15002;52.028;5.670;2023-11-19T02:21:32;15.30;99.90
27559;DHT22;15002;52.028;5.670;2023-11-19T02:23:57;15.30;99.90
27559;DHT22;15002;52.028;5.670;2023-11-19T02:26:33;15.20;99.90
27559;DHT22;15002;52.028;5.670;2023-11-19T02:29:02;15.20;99.90
27559;DHT22;15002;52.028;5.670;2023-11-19T02:31:28;15.20;99.90
27559;DHT22;15002;52.028;5.670;2023-11-19T02:33:54;15.20;99.90
27559;DHT22;15002;52.028;5.670;2023-11-19T02:36:20;15.10;99.90
27559;DHT22;15002;52.028;5.670;2023-11-19T02:38:47;15.30;99.90
27559;DHT22;15002;52.028;5.670;2023-11-19T02:41:14;15.20;99.90
27559;DHT22;15002;52.028;5.670;2023-11-19T02:43:39;15.10;99.90
27559;DHT22;15002;52.028;5.670;2023-11-19T02:46:05;15.00;99.90
27559;DHT22;15002;52.028;5.670;2023-11-19T02:48:35;15.10;99.90
27559;DHT22;15002;52.028;5.670;2023-11-19T02:51:01;15.10;99.90
27559;DHT22;15002;52.028;5.670;2023-11-19T02:53:29;15.00;99.90
27559;DHT22;15002;52.028;5.670;2023-11-19T02:55:55;15.10;99.90
27559;DHT22;15002;52.028;5.670;2023-11-19T02:58:27;15.10;99.90
27559;DHT22;15002;52.028;5.670;2023-11-19T03:00:54;15.10;99.90
27559;DHT22;15002;52.028;5.670;2023-11-19T03:03:26;14.90;99.90
27559;DHT22;15002;52.028;5.670;2023-11-19T03:05:56;15.00;99.90
27559;DHT22;15002;52.028;5.670;2023-11-19T03:08:22;14.80;99.90
27559;DHT22;15002;52.028;5.670;2023-11-19T03:10:48;14.70;99.90
27559;DHT22;15002;52.028;5.670;2023-11-19T03:13:14;14.60;99.90
27559;DHT22;15002;52.028;5.670;2023-11-19T03:15:40;14.70;99.90
27559;DHT22;15002;52.028;5.670;2023-11-19T03:18:05;14.80;99.90
27559;DHT22;15002;52.028;5.670;2023-11-19T03:20:31;14.70;99.90
27559;DHT22;15002;52.028;5.670;2023-11-19T03:22:57;14.60;99.90
27559;DHT22;15002;52.028;5.670;2023-11-19T03:25:25;14.70;99.90
27559;DHT22;15002;52.028;5.670;2023-11-19T03:27:52;14.90;99.90
27559;DHT22;15002;52.028;5.670;2023-11-19T03:30:18;14.90;99.90
27559;DHT22;15002;52.028;5.670;2023-11-19T03:32:46;15.00;99.90
27559;DHT22;15002;52.028;5.670;2023-11-19T03:35:12;14.70;99.90
27559;DHT22;15002;52.028;5.670;2023-11-19T03:37:37;14.70;99.90
27559;DHT22;15002;52.028;5.670;2023-11-19T03:40:05;14.70;99.90
27559;DHT22;15002;52.028;5.670;2023-11-19T03:42:31;14.60;99.90
27559;DHT22;15002;52.028;5.670;2023-11-19T03:44:57;14.50;99.90
27559;DHT22;15002;52.028;5.670;2023-11-19T03:47:23;14.40;99.90
27559;DHT22;15002;52.028;5.670;2023-11-19T03:49:49;14.40;99.90
27559;DHT22;15002;52.028;5.670;2023-11-19T03:52:16;14.50;99.90
27559;DHT22;15002;52.028;5.670;2023-11-19T03:54:42;14.50;99.90
27559;DHT22;15002;52.028;5.670;2023-11-19T03:57:08;14.40;99.90
27559;DHT22;15002;52.028;5.670;2023-11-19T03:59:35;14.20;99.90
27559;DHT22;15002;52.028;5.670;2023-11-19T04:02:01;14.20;99.90
27559;DHT22;15002;52.028;5.670;2023-11-19T04:04:28;14.10;99.90
27559;DHT22;15002;52.028;5.670;2023-11-19T04:06:55;14.30;99.90
27559;DHT22;15002;52.028;5.670;2023-11-19T04:09:21;14.30;99.90
27559;DHT22;15002;52.028;5.670;2023-11-19T04:11:46;14.20;99.90
27559;DHT22;15002;52.028;5.670;2023-11-19T04:14:13;14.30;99.90
27559;DHT22;15002;52.028;5.670;2023-11-19T04:16:39;14.40;99.90
27559;DHT22;15002;52.028;5.670;2023-11-19T04:19:05;14.40;99.90
27559;DHT22;15002;52.028;5.670;2023-11-19T04:21:30;14.40;99.90
27559;DHT22;15002;52.028;5.670;2023-11-19T04:23:56;14.40;99.90
27559;DHT22;15002;52.028;5.670;2023-11-19T04:26:22;14.20;99.90
27559;DHT22;15002;52.028;5.670;2023-11-19T04:28:47;14.20;99.90
27559;DHT22;15002;52.028;5.670;2023-11-19T04:31:15;14.20;99.90
27559;DHT22;15002;52.028;5.670;2023-11-19T04:33:42;14.10;99.90
27559;DHT22;15002;52.028;5.670;2023-11-19T04:36:08;14.20;99.90
27559;DHT22;15002;52.028;5.670;2023-11-19T04:38:33;14.20;99.90
27559;DHT22;15002;52.028;5.670;2023-11-19T04:41:00;14.20;99.90
27559;DHT22;15002;52.028;5.670;2023-11-19T04:43:26;14.10;99.90
27559;DHT22;15002;52.028;5.670;2023-11-19T04:45:51;14.10;99.90
27559;DHT22;15002;52.028;5.670;2023-11-19T04:48:17;13.80;99.90
27559;DHT22;15002;52.028;5.670;2023-11-19T04:50:43;13.90;99.90
27559;DHT22;15002;52.028;5.670;2023-11-19T04:53:08;14.00;99.90
27559;DHT22;15002;52.028;5.670;2023-11-19T04:55:34;14.10;99.90
27559;DHT22;15002;52.028;5.670;2023-11-19T04:57:59;14.20;99.90
27559;DHT22;15002;52.028;5.670;2023-11-19T05:00:25;14.10;99.90
27559;DHT22;15002;52.028;5.670;2023-11-19T05:02:51;14.30;99.90
27559;DHT22;15002;52.028;5.670;2023-11-19T05:05:17;14.30;99.90
27559;DHT22;15002;52.028;5.670;2023-11-19T05:07:43;14.10;99.90
27559;DHT22;15002;52.028;5.670;2023-11-19T05:10:09;14.00;99.90
27559;DHT22;15002;52.028;5.670;2023-11-19T05:12:34;14.00;99.90
27559;DHT22;15002;52.028;5.670;2023-11-19T05:15:00;14.10;99.90
27559;DHT22;15002;52.028;5.670;2023-11-19T05:17:26;14.20;99.90
27559;DHT22;15002;52.028;5.670;2023-11-19T05:19:52;14.30;99.90
27559;DHT22;15002;52.028;5.670;2023-11-19T05:22:18;14.10;99.90
27559;DHT22;15002;52.028;5.670;2023-11-19T05:24:43;14.00;99.90
27559;DHT22;15002;52.028;5.670;2023-11-19T05:27:09;13.90;99.90
27559;DHT22;15002;52.028;5.670;2023-11-19T05:29:37;14.20;99.90
27559;DHT22;15002;52.028;5.670;2023-11-19T05:32:05;14.00;99.90
27559;DHT22;15002;52.028;5.670;2023-11-19T05:34:30;13.90;99.90
27559;DHT22;15002;52.028;5.670;2023-11-19T05:36:56;13.90;99.90
27559;DHT22;15002;52.028;5.670;2023-11-19T05:39:22;13.90;99.90
27559;DHT22;15002;52.028;5.670;2023-11-19T05:41:48;13.80;99.90
27559;DHT22;15002;52.028;5.670;2023-11-19T05:44:14;14.00;99.90
27559;DHT22;15002;52.028;5.670;2023-11-19T05:46:39;13.80;99.90
27559;DHT22;15002;52.028;5.670;2023-11-19T05:49:08;13.80;99.90
27559;DHT22;15002;52.028;5.670;2023-11-19T05:51:40;13.90;99.90
27559;DHT22;15002;52.028;5.670;2023-11-19T05:54:07;13.80;99.90
27559;DHT22;15002;52.028;5.670;2023-11-19T05:56:33;13.90;99.90
27559;DHT22;15002;52.028;5.670;2023-11-19T05:58:59;14.00;99.90
27559;DHT22;15002;52.028;5.670;2023-11-19T06:01:33;14.10;99.90
27559;DHT22;15002;52.028;5.670;2023-11-19T06:03:59;14.00;99.90
27559;DHT22;15002;52.028;5.670;2023-11-19T06:06:26;14.20;99.90
27559;DHT22;15002;52.028;5.670;2023-11-19T06:08:52;13.90;99.90
27559;DHT22;15002;52.028;5.670;2023-11-19T06:11:18;13.90;99.90
27559;DHT22;15002;52.028;5.670;2023-11-19T06:13:45;13.90;99.90
27559;DHT22;15002;52.028;5.670;2023-11-19T06:16:11;13.90;99.90
27559;DHT22;15002;52.028;5.670;2023-11-19T06:18:37;13.80;99.90
27559;DHT22;15002;52.028;5.670;2023-11-19T06:21:03;14.10;99.90
27559;DHT22;15002;52.028;5.670;2023-11-19T06:23:29;14.00;99.90
27559;DHT22;15002;52.028;5.670;2023-11-19T06:25:54;13.90;99.90
27559;DHT22;15002;52.028;5.670;2023-11-19T06:28:20;13.90;99.90
27559;DHT22;15002;52.028;5.670;2023-11-19T06:30:45;13.90;99.90
27559;DHT22;15002;52.028;5.670;2023-11-19T06:33:14;13.90;99.90
27559;DHT22;15002;52.028;5.670;2023-11-19T06:35:40;13.90;99.90
27559;DHT22;15002;52.028;5.670;2023-11-19T06:38:06;13.70;99.90
27559;DHT22;15002;52.028;5.670;2023-11-19T06:40:32;13.60;99.90
27559;DHT22;15002;52.028;5.670;2023-11-19T06:42:58;13.80;99.90
27559;DHT22;15002;52.028;5.670;2023-11-19T06:45:24;13.70;99.90
27559;DHT22;15002;52.028;5.670;2023-11-19T06:47:49;13.70;99.90
27559;DHT22;15002;52.028;5.670;2023-11-19T06:50:15;13.70;99.90
27559;DHT22;15002;52.028;5.670;2023-11-19T06:52:41;13.80;99.90
27559;DHT22;15002;52.028;5.670;2023-11-19T06:55:07;13.80;99.90
27559;DHT22;15002;52.028;5.670;2023-11-19T06:57:33;13.70;99.90
27559;DHT22;15002;52.028;5.670;2023-11-19T06:59:59;13.80;99.90
27559;DHT22;15002;52.028;5.670;2023-11-19T07:02:25;13.70;99.90
27559;DHT22;15002;52.028;5.670;2023-11-19T07:04:51;13.70;99.90
27559;DHT22;15002;52.028;5.670;2023-11-19T07:07:17;13.60;99.90
27559;DHT22;15002;52.028;5.670;2023-11-19T07:09:42;13.70;99.90
27559;DHT22;15002;52.028;5.670;2023-11-19T07:12:08;13.70;99.90
27559;DHT22;15002;52.028;5.670;2023-11-19T07:14:34;13.70;99.90
27559;DHT22;15002;52.028;5.670;2023-11-19T07:17:00;13.70;99.90
27559;DHT22;15002;52.028;5.670;2023-11-19T07:19:26;13.90;99.90
27559;DHT22;15002;52.028;5.670;2023-11-19T07:21:52;13.80;99.90
27559;DHT22;15002;52.028;5.670;2023-11-19T07:24:20;13.70;99.90
27559;DHT22;15002;52.028;5.670;2023-11-19T07:26:47;13.60;99.90
27559;DHT22;15002;52.028;5.670;2023-11-19T07:29:16;13.70;99.90
27559;DHT22;15002;52.028;5.670;2023-11-19T07:31:44;13.60;99.90
27559;DHT22;15002;52.028;5.670;2023-11-19T07:34:10;13.70;99.90
27559;DHT22;15002;52.028;5.670;2023-11-19T07:36:37;13.70;99.90
27559;DHT22;15002;52.028;5.670;2023-11-19T07:39:04;13.60;99.90
27559;DHT22;15002;52.028;5.670;2023-11-19T07:41:33;13.50;99.90
27559;DHT22;15002;52.028;5.670;2023-11-19T07:44:00;13.60;99.90
27559;DHT22;15002;52.028;5.670;2023-11-19T07:46:26;13.70;99.90
27559;DHT22;15002;52.028;5.670;2023-11-19T07:48:52;13.70;99.90
27559;DHT22;15002;52.028;5.670;2023-11-19T07:51:18;13.70;99.90
27559;DHT22;15002;52.028;5.670;2023-11-19T07:53:43;13.60;99.90
27559;DHT22;15002;52.028;5.670;2023-11-19T07:56:10;13.60;99.90
27559;DHT22;15002;52.028;5.670;2023-11-19T07:58:36;13.70;99.90
27559;DHT22;15002;52.028;5.670;2023-11-19T08:01:02;13.70;99.90
27559;DHT22;15002;52.028;5.670;2023-11-19T08:03:28;13.80;99.90
27559;DHT22;15002;52.028;5.670;2023-11-19T08:05:58;13.60;99.90
27559;DHT22;15002;52.028;5.670;2023-11-19T08:08:23;13.80;99.90
27559;DHT22;15002;52.028;5.670;2023-11-19T08:10:49;13.70;99.90
27559;DHT22;15002;52.028;5.670;2023-11-19T08:13:17;13.60;99.90
27559;DHT22;15002;52.028;5.670;2023-11-19T08:15:43;13.70;99.90
27559;DHT22;15002;52.028;5.670;2023-11-19T08:18:08;13.70;99.90
27559;DHT22;15002;52.028;5.670;2023-11-19T08:20:34;13.70;99.90
27559;DHT22;15002;52.028;5.670;2023-11-19T08:23:02;13.80;99.90
27559;DHT22;15002;52.028;5.670;2023-11-19T08:25:31;13.90;99.90
27559;DHT22;15002;52.028;5.670;2023-11-19T08:27:59;13.80;99.90
27559;DHT22;15002;52.028;5.670;2023-11-19T08:30:25;13.60;99.90
27559;DHT22;15002;52.028;5.670;2023-11-19T08:32:50;13.70;99.90
27559;DHT22;15002;52.028;5.670;2023-11-19T08:35:16;13.90;99.90
27559;DHT22;15002;52.028;5.670;2023-11-19T08:37:41;13.90;99.90
27559;DHT22;15002;52.028;5.670;2023-11-19T08:40:08;13.90;99.90
27559;DHT22;15002;52.028;5.670;2023-11-19T08:42:33;13.90;99.90
27559;DHT22;15002;52.028;5.670;2023-11-19T08:44:59;13.90;99.90
27559;DHT22;15002;52.028;5.670;2023-11-19T08:47:25;13.80;99.90
27559;DHT22;15002;52.028;5.670;2023-11-19T08:49:51;13.80;99.90
27559;DHT22;15002;52.028;5.670;2023-11-19T08:52:17;13.80;99.90
27559;DHT22;15002;52.028;5.670;2023-11-19T08:54:43;13.90;99.90
27559;DHT22;15002;52.028;5.670;2023-11-19T08:57:09;13.90;99.90
27559;DHT22;15002;52.028;5.670;2023-11-19T08:59:35;14.00;99.90
27559;DHT22;15002;52.028;5.670;2023-11-19T09:02:03;14.00;99.90
27559;DHT22;15002;52.028;5.670;2023-11-19T09:04:29;14.20;99.90
27559;DHT22;15002;52.028;5.670;2023-11-19T09:06:54;14.10;99.90
27559;DHT22;15002;52.028;5.670;2023-11-19T09:09:21;14.40;99.90
27559;DHT22;15002;52.028;5.670;2023-11-19T09:11:46;14.50;99.90
27559;DHT22;15002;52.028;5.670;2023-11-19T09:14:12;14.50;99.90
27559;DHT22;15002;52.028;5.670;2023-11-19T09:16:38;14.40;99.90
27559;DHT22;15002;52.028;5.670;2023-11-19T09:19:03;14.20;99.90
27559;DHT22;15002;52.028;5.670;2023-11-19T09:21:29;14.30;99.90
27559;DHT22;15002;52.028;5.670;2023-11-19T09:23:55;14.30;99.90
27559;DHT22;15002;52.028;5.670;2023-11-19T09:26:21;14.60;99.90
27559;DHT22;15002;52.028;5.670;2023-11-19T09:28:47;14.80;99.90
27559;DHT22;15002;52.028;5.670;2023-11-19T09:31:18;14.40;99.90
27559;DHT22;15002;52.028;5.670;2023-11-19T09:33:44;14.20;99.90
27559;DHT22;15002;52.028;5.670;2023-11-19T09:36:14;14.60;99.90
27559;DHT22;15002;52.028;5.670;2023-11-19T09:38:43;14.60;99.90
27559;DHT22;15002;52.028;5.670;2023-11-19T09:41:10;14.90;99.90
27559;DHT22;15002;52.028;5.670;2023-11-19T09:43:39;14.90;99.90
27559;DHT22;15002;52.028;5.670;2023-11-19T09:46:06;14.80;99.90
27559;DHT22;15002;52.028;5.670;2023-11-19T09:48:37;15.10;99.90
27559;DHT22;15002;52.028;5.670;2023-11-19T09:51:07;15.10;99.90
27559;DHT22;15002;52.028;5.670;2023-11-19T09:53:34;14.80;99.90
27559;DHT22;15002;52.028;5.670;2023-11-19T09:56:00;15.10;99.90
27559;DHT22;15002;52.028;5.670;2023-11-19T09:58:29;14.90;99.90
27559;DHT22;15002;52.028;5.670;2023-11-19T10:00:55;15.00;99.90
27559;DHT22;15002;52.028;5.670;2023-11-19T10:03:22;14.90;99.90
27559;DHT22;15002;52.028;5.670;2023-11-19T10:05:48;14.90;99.90
27559;DHT22;15002;52.028;5.670;2023-11-19T10:08:14;15.10;99.90
27559;DHT22;15002;52.028;5.670;2023-11-19T10:10:40;15.00;99.90
27559;DHT22;15002;52.028;5.670;2023-11-19T10:13:05;15.10;99.90
27559;DHT22;15002;52.028;5.670;2023-11-19T10:15:36;15.00;99.90
27559;DHT22;15002;52.028;5.670;2023-11-19T10:18:03;14.90;99.90
27559;DHT22;15002;52.028;5.670;2023-11-19T10:20:35;15.00;99.90
27559;DHT22;15002;52.028;5.670;2023-11-19T10:23:02;15.10;99.90
27559;DHT22;15002;52.028;5.670;2023-11-19T10:25:28;15.00;99.90
27559;DHT22;15002;52.028;5.670;2023-11-19T10:27:55;15.20;99.90
27559;DHT22;15002;52.028;5.670;2023-11-19T10:30:26;15.20;99.90
27559;DHT22;15002;52.028;5.670;2023-11-19T10:33:11;15.00;99.90
27559;DHT22;15002;52.028;5.670;2023-11-19T10:35:58;15.20;99.90
27559;DHT22;15002;52.028;5.670;2023-11-19T10:38:24;15.00;99.90
27559;DHT22;15002;52.028;5.670;2023-11-19T10:40:51;15.30;99.90
27559;DHT22;15002;52.028;5.670;2023-11-19T10:43:18;15.60;99.90
27559;DHT22;15002;52.028;5.670;2023-11-19T10:45:44;15.40;99.90
27559;DHT22;15002;52.028;5.670;2023-11-19T10:48:10;15.70;99.90
27559;DHT22;15002;52.028;5.670;2023-11-19T10:50:37;15.80;99.90
27559;DHT22;15002;52.028;5.670;2023-11-19T10:53:04;16.00;99.90
27559;DHT22;15002;52.028;5.670;2023-11-19T10:55:34;15.90;99.90
27559;DHT22;15002;52.028;5.670;2023-11-19T10:58:10;16.00;99.90
27559;DHT22;15002;52.028;5.670;2023-11-19T11:03:22;16.20;99.90
27559;DHT22;15002;52.028;5.670;2023-11-19T11:05:51;16.00;99.90
27559;DHT22;15002;52.028;5.670;2023-11-19T11:08:18;15.90;99.90
27559;DHT22;15002;52.028;5.670;2023-11-19T11:10:55;15.90;99.90
27559;DHT22;15002;52.028;5.670;2023-11-19T11:13:23;16.00;99.90
27559;DHT22;15002;52.028;5.670;2023-11-19T11:15:50;15.70;99.90
27559;DHT22;15002;52.028;5.670;2023-11-19T11:18:16;15.70;99.90
27559;DHT22;15002;52.028;5.670;2023-11-19T11:20:45;15.70;99.90
27559;DHT22;15002;52.028;5.670;2023-11-19T11:31:31;16.00;99.90
27559;DHT22;15002;52.028;5.670;2023-11-19T11:40:14;16.00;99.90
27559;DHT22;15002;52.028;5.670;2023-11-19T11:42:41;16.00;99.90
27559;DHT22;15002;52.028;5.670;2023-11-19T11:45:11;16.00;99.90
27559;DHT22;15002;52.028;5.670;2023-11-19T11:50:18;15.80;99.90
27559;DHT22;15002;52.028;5.670;2023-11-19T11:55:37;15.80;99.90
27559;DHT22;15002;52.028;5.670;2023-11-19T11:58:05;15.70;99.90
27559;DHT22;15002;52.028;5.670;2023-11-19T12:00:31;15.70;99.90
27559;DHT22;15002;52.028;5.670;2023-11-19T12:02:59;15.70;99.90
27559;DHT22;15002;52.028;5.670;2023-11-19T12:05:25;15.60;99.90
27559;DHT22;15002;52.028;5.670;2023-11-19T12:08:00;15.60;99.90
27559;DHT22;15002;52.028;5.670;2023-11-19T12:10:30;15.40;99.90
27559;DHT22;15002;52.028;5.670;2023-11-19T12:13:05;15.30;99.90
27559;DHT22;15002;52.028;5.670;2023-11-19T12:15:33;15.40;99.90
27559;DHT22;15002;52.028;5.670;2023-11-19T12:17:59;15.50;99.90
27559;DHT22;15002;52.028;5.670;2023-11-19T12:20:26;15.70;99.90
27559;DHT22;15002;52.028;5.670;2023-11-19T12:22:52;15.90;99.90
27559;DHT22;15002;52.028;5.670;2023-11-19T12:25:19;15.90;99.90
27559;DHT22;15002;52.028;5.670;2023-11-19T12:27:50;15.70;99.90
27559;DHT22;15002;52.028;5.670;2023-11-19T12:30:23;15.90;99.90
27559;DHT22;15002;52.028;5.670;2023-11-19T12:32:52;15.70;99.90
27559;DHT22;15002;52.028;5.670;2023-11-19T12:35:19;15.80;99.90
27559;DHT22;15002;52.028;5.670;2023-11-19T12:37:47;15.60;99.90
27559;DHT22;15002;52.028;5.670;2023-11-19T12:40:20;15.60;99.90
27559;DHT22;15002;52.028;5.670;2023-11-19T12:42:46;15.50;99.90
27559;DHT22;15002;52.028;5.670;2023-11-19T12:45:12;15.70;99.90
27559;DHT22;15002;52.028;5.670;2023-11-19T12:47:39;15.80;99.90
27559;DHT22;15002;52.028;5.670;2023-11-19T12:50:07;15.70;99.90
27559;DHT22;15002;52.028;5.670;2023-11-19T12:52:34;15.90;99.90
27559;DHT22;15002;52.028;5.670;2023-11-19T12:55:01;15.90;99.90
27559;DHT22;15002;52.028;5.670;2023-11-19T12:57:37;15.90;99.90
27559;DHT22;15002;52.028;5.670;2023-11-19T13:00:03;15.90;99.90
27559;DHT22;15002;52.028;5.670;2023-11-19T13:02:46;15.90;99.90
27559;DHT22;15002;52.028;5.670;2023-11-19T13:05:32;15.90;99.90
27559;DHT22;15002;52.028;5.670;2023-11-19T13:08:08;15.80;99.90
27559;DHT22;15002;52.028;5.670;2023-11-19T13:10:51;16.00;99.90
27559;DHT22;15002;52.028;5.670;2023-11-19T13:13:17;16.00;99.90
27559;DHT22;15002;52.028;5.670;2023-11-19T13:15:43;15.90;99.90
27559;DHT22;15002;52.028;5.670;2023-11-19T13:18:12;16.00;99.90
27559;DHT22;15002;52.028;5.670;2023-11-19T13:20:38;15.90;99.90
27559;DHT22;15002;52.028;5.670;2023-11-19T13:23:06;15.80;99.90
27559;DHT22;15002;52.028;5.670;2023-11-19T13:25:35;15.70;99.90
27559;DHT22;15002;52.028;5.670;2023-11-19T13:28:01;15.60;99.90
27559;DHT22;15002;52.028;5.670;2023-11-19T13:30:27;15.70;99.90
27559;DHT22;15002;52.028;5.670;2023-11-19T13:32:54;16.00;99.90
27559;DHT22;15002;52.028;5.670;2023-11-19T13:35:21;15.80;99.90
27559;DHT22;15002;52.028;5.670;2023-11-19T13:37:48;15.90;99.90
27559;DHT22;15002;52.028;5.670;2023-11-19T13:40:14;16.00;99.90
27559;DHT22;15002;52.028;5.670;2023-11-19T13:42:44;15.90;99.90
27559;DHT22;15002;52.028;5.670;2023-11-19T13:45:13;15.80;99.90
27559;DHT22;15002;52.028;5.670;2023-11-19T13:47:40;15.80;99.90
27559;DHT22;15002;52.028;5.670;2023-11-19T13:50:10;15.80;99.90
27559;DHT22;15002;52.028;5.670;2023-11-19T13:52:40;15.60;99.90
27559;DHT22;15002;52.028;5.670;2023-11-19T13:55:08;15.30;99.90
27559;DHT22;15002;52.028;5.670;2023-11-19T13:57:38;15.20;99.90
27559;DHT22;15002;52.028;5.670;2023-11-19T14:00:07;15.10;99.90
27559;DHT22;15002;52.028;5.670;2023-11-19T14:02:36;15.20;99.90
27559;DHT22;15002;52.028;5.670;2023-11-19T14:05:02;15.00;99.90
27559;DHT22;15002;52.028;5.670;2023-11-19T14:07:28;15.00;99.90
27559;DHT22;15002;52.028;5.670;2023-11-19T14:09:54;14.90;99.90
27559;DHT22;15002;52.028;5.670;2023-11-19T14:12:19;14.80;99.90
27559;DHT22;15002;52.028;5.670;2023-11-19T14:14:45;15.10;99.90
27559;DHT22;15002;52.028;5.670;2023-11-19T14:17:11;14.90;99.90
27559;DHT22;15002;52.028;5.670;2023-11-19T14:19:37;15.00;99.90
27559;DHT22;15002;52.028;5.670;2023-11-19T14:22:04;15.10;99.90
27559;DHT22;15002;52.028;5.670;2023-11-19T14:24:30;15.00;99.90
27559;DHT22;15002;52.028;5.670;2023-11-19T14:26:56;15.10;99.90
27559;DHT22;15002;52.028;5.670;2023-11-19T14:29:24;15.00;99.90
27559;DHT22;15002;52.028;5.670;2023-11-19T14:31:51;15.20;99.90
27559;DHT22;15002;52.028;5.670;2023-11-19T14:34:18;15.30;99.90
27559;DHT22;15002;52.028;5.670;2023-11-19T14:36:44;15.30;99.90
27559;DHT22;15002;52.028;5.670;2023-11-19T14:39:10;15.10;99.90
27559;DHT22;15002;52.028;5.670;2023-11-19T14:41:36;15.20;99.90
27559;DHT22;15002;52.028;5.670;2023-11-19T14:44:01;15.30;99.90
27559;DHT22;15002;52.028;5.670;2023-11-19T14:46:29;15.10;99.90
27559;DHT22;15002;52.028;5.670;2023-11-19T14:48:54;15.10;99.90
27559;DHT22;15002;52.028;5.670;2023-11-19T14:51:21;15.00;99.90
27559;DHT22;15002;52.028;5.670;2023-11-19T14:53:46;14.80;99.90
27559;DHT22;15002;52.028;5.670;2023-11-19T14:56:13;14.90;99.90
27559;DHT22;15002;52.028;5.670;2023-11-19T14:58:39;15.30;99.90
27559;DHT22;15002;52.028;5.670;2023-11-19T15:01:05;15.10;99.90
27559;DHT22;15002;52.028;5.670;2023-11-19T15:03:31;15.00;99.90
27559;DHT22;15002;52.028;5.670;2023-11-19T15:05:58;15.00;99.90
27559;DHT22;15002;52.028;5.670;2023-11-19T15:08:23;14.90;99.90
27559;DHT22;15002;52.028;5.670;2023-11-19T15:10:49;14.90;99.90
27559;DHT22;15002;52.028;5.670;2023-11-19T15:13:15;15.20;99.90
27559;DHT22;15002;52.028;5.670;2023-11-19T15:15:40;15.00;99.90
27559;DHT22;15002;52.028;5.670;2023-11-19T15:18:07;14.80;99.90
27559;DHT22;15002;52.028;5.670;2023-11-19T15:20:32;14.90;99.90
27559;DHT22;15002;52.028;5.670;2023-11-19T15:22:58;14.90;99.90
27559;DHT22;15002;52.028;5.670;2023-11-19T15:25:24;15.00;99.90
27559;DHT22;15002;52.028;5.670;2023-11-19T15:27:50;14.80;99.90
27559;DHT22;15002;52.028;5.670;2023-11-19T15:30:16;14.80;99.90
27559;DHT22;15002;52.028;5.670;2023-11-19T15:32:44;14.70;99.90
27559;DHT22;15002;52.028;5.670;2023-11-19T15:35:10;14.70;99.90
27559;DHT22;15002;52.028;5.670;2023-11-19T15:37:37;14.70;99.90
27559;DHT22;15002;52.028;5.670;2023-11-19T15:40:09;14.80;99.90
27559;DHT22;15002;52.028;5.670;2023-11-19T15:42:35;14.70;99.90
27559;DHT22;15002;52.028;5.670;2023-11-19T15:45:01;14.60;99.90
27559;DHT22;15002;52.028;5.670;2023-11-19T15:47:30;14.70;99.90
27559;DHT22;15002;52.028;5.670;2023-11-19T15:49:56;14.50;99.90
27559;DHT22;15002;52.028;5.670;2023-11-19T15:52:21;14.80;99.90